CW0561 Weather Reports


time (UTC)temp
F
wind
direction
speed
knots
gust
knots
rain 1hr
in
rain 24hr
in
rain mn
in
humidity
%
barometer
mb
20260502233604 65 272 1.7 12.2 0.00 0.00 0.00 33 1009.7
20260502233104 65 196 7.0 10.4 0.00 0.00 0.00 30 1010.3
20260502232603 65 246 2.6 7.8 0.00 0.00 0.00 31 1009.6
20260502232104 66 193 2.6 10.4 0.00 0.00 0.00 30 1009.9
20260502231604 66 283 6.1 10.4 0.00 0.00 0.00 31 1009.8
20260502231104 66 302 2.6 12.2 0.00 0.00 0.00 30 1009.8
20260502230603 65 335 2.6 7.8 0.00 0.00 0.00 31 1009.9
20260502230104 65 263 1.7 4.3 0.00 0.00 0.00 30 1010.1
20260502225604 65 330 0.9 5.2 0.00 0.00 0.00 31 1010.2
20260502225104 65 268 1.7 6.1 0.00 0.00 0.00 29 1010.2
20260502224604 65 212 3.5 6.1 0.00 0.00 0.00 30 1010.2
20260502224103 65 264 1.7 4.3 0.00 0.00 0.00 30 1010.4
20260502223604 65 335 0.9 5.2 0.00 0.00 0.00 29 1010.6
20260502223104 65 215 2.6 6.1 0.00 0.00 0.00 29 1010.7
20260502222604 65 298 2.6 6.1 0.00 0.00 0.00 31 1010.3
20260502222104 65 315 2.6 7.8 0.00 0.00 0.00 32 1010.4
20260502221604 65 319 2.6 7.8 0.00 0.00 0.00 31 1010.5
20260502221104 65 262 3.5 7.8 0.00 0.00 0.00 30 1010.5
20260502220604 65 314 0.9 6.1 0.00 0.00 0.00 31 1010.6
20260502220104 65 293 2.6 8.7 0.00 0.00 0.00 29 1010.6
20260502215104 66 300 2.6 8.7 0.00 0.00 0.00 29 1010.9
20260502214604 66 296 5.2 12.2 0.00 0.00 0.00 29 1011.0
20260502214104 66 305 5.2 12.2 0.00 0.00 0.00 29 1011.0
20260502212604 66 278 2.6 8.7 0.00 0.00 0.00 29 1011.4
20260502212104 66 335 1.7 10.4 0.00 0.00 0.00 29 1011.4
20260502211604 67 210 5.2 7.8 0.00 0.00 0.00 28 1011.3
20260502211103 67 213 2.6 12.2 0.00 0.00 0.00 28 1011.5
20260502210604 66 259 2.6 13.0 0.00 0.00 0.00 27 1011.6
20260502210104 65 242 6.1 13.0 0.00 0.00 0.00 29 1012.0
20260502205604 65 291 5.2 10.4 0.00 0.00 0.00 29 1012.2
20260502205105 66 282 3.5 10.4 0.00 0.00 0.00 30 1011.7
20260502204604 65 204 2.6 6.1 0.00 0.00 0.00 30 1011.8
20260502204104 66 308 3.5 8.7 0.00 0.00 0.00 29 1011.9
20260502203604 65 258 4.3 12.2 0.00 0.00 0.00 29 1012.1
20260502203104 66 221 6.1 12.2 0.00 0.00 0.00 28 1012.2
20260502202604 65 209 1.7 13.0 0.00 0.00 0.00 28 1012.5
20260502202104 64 280 5.2 10.4 0.00 0.00 0.00 30 1012.8
20260502201604 65 239 5.2 13.0 0.00 0.00 0.00 29 1012.7
20260502201104 66 280 2.6 5.2 0.00 0.00 0.00 30 1012.9
20260502200604 66 293 3.5 7.8 0.00 0.00 0.00 28 1012.9
20260502200105 65 225 2.6 5.2 0.00 0.00 0.00 29 1013.1
20260502195604 64 271 2.6 10.4 0.00 0.00 0.00 28 1013.6
20260502195104 63 236 2.6 8.7 0.00 0.00 0.00 29 1013.1
20260502194604 63 254 5.2 12.2 0.00 0.00 0.00 30 1013.3
20260502194104 64 197 5.2 8.7 0.00 0.00 0.00 29 1013.3
20260502193104 64 208 2.6 10.4 0.00 0.00 0.00 29 1013.5
20260502192603 63 317 4.3 7.8 0.00 0.00 0.00 30 1013.9
20260502192105 62 208 2.6 12.2 0.00 0.00 0.00 30 1014.1
20260502191604 63 282 2.6 6.1 0.00 0.00 0.00 29 1014.1
20260502190603 61 225 4.3 10.4 0.00 0.00 0.00 31 1014.2
20260502190104 62 269 4.3 10.4 0.00 0.00 0.00 28 1014.5
20260502185604 61 286 2.6 6.1 0.00 0.00 0.00 30 1014.8
20260502185104 61 202 4.3 8.7 0.00 0.00 0.00 31 1014.5
20260502184603 61 302 5.2 12.2 0.00 0.00 0.00 31 1014.9
20260502184105 61 88 5.2 12.2 0.00 0.00 0.00 30 1015.0
20260502183604 61 203 6.1 10.4 0.00 0.00 0.00 30 1014.7
20260502182104 60 237 5.2 10.4 0.00 0.00 0.00 30 1015.1
20260502181604 61 290 3.5 6.1 0.00 0.00 0.00 31 1015.1
20260502181104 60 269 2.6 13.9 0.00 0.00 0.00 30 1015.4
20260502180604 59 308 3.5 13.9 0.00 0.00 0.00 31 1015.2
20260502164103 58 322 5.2 10.4 0.00 0.00 0.00 31 1016.9
20260502163603 58 297 2.6 8.7 0.00 0.00 0.00 32 1017.0
20260502163104 57 283 4.3 10.4 0.00 0.00 0.00 32 1017.1
20260502162603 57 185 6.1 10.4 0.00 0.00 0.00 34 1016.9
20260502162103 58 210 3.5 6.1 0.00 0.00 0.00 31 1017.1
20260502161604 57 335 2.6 10.4 0.00 0.00 0.00 32 1017.3
20260502161103 57 294 2.6 7.8 0.00 0.00 0.00 34 1017.4
20260502160604 57 223 1.7 7.8 0.00 0.00 0.00 33 1017.5
20260502160104 57 340 1.7 6.1 0.00 0.00 0.00 35 1017.5
20260502152103 55 249 4.3 8.7 0.00 0.00 0.00 36 1017.8
20260502151604 54 272 0.9 7.8 0.00 0.00 0.00 38 1017.9
20260502151104 54 300 4.3 7.8 0.00 0.00 0.00 37 1018.1
20260502150604 54 335 2.6 7.8 0.00 0.00 0.00 39 1018.2
20260502150104 53 313 4.3 7.8 0.00 0.00 0.00 40 1018.3
20260502140104 50 266 4.3 6.1 0.00 0.00 0.00 45 1018.7
20260502130604 45 331 1.7 6.1 0.00 0.00 0.00 52 1019.3
20260502130104 45 330 1.7 4.3 0.00 0.00 0.00 53 1019.4
20260502123604 41 330 0.9 4.3 0.00 0.00 0.00 59 1019.3
20260502123104 41 332 0.9 2.6 0.00 0.00 0.00 60 1019.4
20260502122604 41 335 0.9 2.6 0.00 0.00 0.00 61 1019.5
20260502122104 40 358 0.0 0.9 0.00 0.00 0.00 61 1019.4
20260502121603 40 358 0.0 0.9 0.00 0.00 0.00 62 1019.5
20260502121104 39 358 0.0 0.9 0.00 0.00 0.00 64 1019.6
20260502120604 38 357 0.0 0.0 0.00 0.00 0.00 64 1019.5
20260502120104 38 357 0.0 0.9 0.00 0.00 0.00 55 1019.5
20260502115604 38 357 0.0 0.9 0.00 0.00 0.00 67 1019.7
20260502115104 37 357 0.0 0.0 0.00 0.00 0.00 55 1019.6
20260502114604 37 357 0.0 0.9 0.00 0.00 0.00 69 1019.5
20260502113604 37 357 0.0 0.9 0.00 0.00 0.00 69 1019.6
20260502112604 35 356 0.0 0.9 0.00 0.00 0.00 70 1019.7
20260502112104 35 356 0.0 0.9 0.00 0.00 0.00 72 1019.7
20260502111603 35 356 0.0 0.9 0.00 0.00 0.00 72 1019.7
20260502111104 34 356 0.0 0.0 0.00 0.00 0.00 72 1019.9
20260502110603 35 356 0.0 0.9 0.00 0.00 0.00 71 1019.9
20260502110104 34 356 0.0 0.9 0.00 0.00 0.00 72 1019.8
20260502105103 34 356 0.0 0.0 0.00 0.00 0.00 71 1019.6
20260502104604 35 356 0.0 0.0 0.00 0.00 0.00 70 1019.6
20260502104104 34 356 0.0 0.0 0.00 0.00 0.00 70 1019.4
20260502103604 35 356 0.0 0.0 0.00 0.00 0.00 60 1019.8
20260502103104 36 356 0.0 0.9 0.00 0.00 0.00 69 1019.6
20260502102605 35 356 0.0 0.9 0.00 0.00 0.00 55 1019.5
20260502102104 35 356 0.0 0.0 0.00 0.00 0.00 67 1019.8
20260502101604 36 357 0.0 0.9 0.00 0.00 0.00 67 1019.7
20260502101104 37 357 0.0 0.0 0.00 0.00 0.00 66 1019.6
20260502100604 37 356 0.0 0.0 0.00 0.00 0.00 59 1019.6
20260502100104 37 356 0.0 0.9 0.00 0.00 0.00 64 1019.4
20260502091103 39 356 0.0 0.9 0.00 0.00 0.00 55 1019.0
20260502090603 40 356 0.0 0.9 0.00 0.00 0.00 60 1018.9
20260502090104 39 356 0.0 0.0 0.00 0.00 0.00 54 1019.1
20260502080103 39 356 0.0 0.0 0.00 0.00 0.00 60 1019.1
20260502071104 40 357 0.0 0.0 0.00 0.00 0.00 59 1019.4
20260502070604 39 357 0.0 0.0 0.00 0.00 0.00 50 1019.5
20260502065605 41 356 0.0 0.0 0.00 0.00 0.00 45 1019.4
20260502065104 41 356 0.0 0.0 0.00 0.00 0.00 54 1019.4
20260502064604 41 356 0.0 0.9 0.00 0.00 0.00 53 1019.4
20260502064104 42 356 0.0 0.9 0.00 0.00 0.00 53 1019.5
20260502063604 41 356 0.9 0.9 0.00 0.00 0.00 53 1019.5
20260502063104 40 356 0.0 0.9 0.00 0.00 0.00 54 1019.6
20260502062104 38 357 0.0 0.0 0.00 0.00 0.00 52 1019.7
20260502061104 38 357 0.0 0.0 0.00 0.00 0.00 52 1019.6
20260502060603 40 357 0.0 0.0 0.00 0.00 0.00 58 1019.6
20260502060104 39 357 0.0 0.0 0.00 0.00 0.00 49 1019.6
20260502055605 38 357 0.0 0.0 0.00 0.00 0.00 58 1019.8
20260502055104 38 357 0.0 0.0 0.00 0.00 0.00 43 1019.7
20260502054604 39 357 0.0 0.0 0.00 0.00 0.00 57 1019.7
20260502054104 40 357 0.0 0.0 0.00 0.00 0.00 39 1019.8
20260502053604 41 357 0.0 0.0 0.00 0.00 0.00 55 1019.6
20260502052604 41 357 0.0 0.0 0.00 0.00 0.00 55 1019.6
20260502052103 41 357 0.0 0.0 0.00 0.00 0.00 54 1019.6
20260502051604 41 357 0.0 0.0 0.00 0.00 0.00 54 1019.5
20260502051103 39 357 0.0 0.0 0.00 0.00 0.00 56 1019.8
20260502050604 40 357 0.0 0.0 0.00 0.00 0.00 57 1019.8
20260502045603 39 357 0.0 0.0 0.00 0.00 0.00 47 1019.7
20260502044603 40 357 0.0 0.0 0.00 0.00 0.00 44 1019.4
20260502044104 39 357 0.0 0.0 0.00 0.00 0.00 55 1019.7
20260502043603 40 357 0.0 0.0 0.00 0.00 0.00 56 1019.6
20260502043103 40 357 0.0 0.0 0.00 0.00 0.00 57 1019.7
20260502042603 38 357 0.0 0.0 0.00 0.00 0.00 58 1019.7
20260502042103 39 357 0.0 0.0 0.00 0.00 0.00 57 1019.8
20260502041604 39 357 0.0 0.0 0.00 0.00 0.00 58 1019.7
20260502041104 40 357 0.0 0.0 0.00 0.00 0.00 57 1019.6
20260502040603 39 357 0.0 0.0 0.00 0.00 0.00 56 1019.7
20260502035604 42 357 0.0 0.0 0.00 0.00 0.00 53 1019.4
20260502035104 41 357 0.0 0.0 0.00 0.00 0.00 52 1019.6
20260502034604 42 357 0.0 0.0 0.00 0.00 0.00 52 1019.7
20260502034104 43 357 0.0 0.0 0.00 0.00 0.00 50 1019.5
20260502033604 42 357 0.0 0.0 0.00 0.00 0.00 50 1019.5
20260502033104 43 357 0.0 0.0 0.00 0.00 0.00 49 1019.6
20260502032104 42 357 0.0 0.0 0.00 0.00 0.00 48 1019.5
20260502031603 42 357 0.0 0.0 0.00 0.00 0.00 49 1019.3
20260502031104 43 357 0.0 0.0 0.00 0.00 0.00 49 1019.4
20260502030603 42 357 0.0 0.0 0.00 0.00 0.00 42 1019.6
20260502030104 43 357 0.0 0.0 0.00 0.00 0.00 47 1019.4
20260502025603 44 357 0.0 0.0 0.00 0.00 0.00 39 1019.4
20260502025104 45 357 0.0 0.0 0.00 0.00 0.00 45 1019.2
20260502024604 44 357 0.0 0.0 0.00 0.00 0.00 37 1019.4
20260502023603 46 357 0.0 0.0 0.00 0.00 0.00 36 1019.2
20260502023103 46 357 0.0 0.0 0.00 0.00 0.00 41 1019.2
20260502022104 46 357 0.0 0.0 0.00 0.00 0.00 37 1019.1
20260502021603 46 357 0.0 0.0 0.00 0.00 0.00 40 1019.1
20260502021103 46 357 0.0 0.0 0.00 0.00 0.00 38 1019.0
20260502020604 47 357 0.0 0.0 0.00 0.00 0.00 36 1018.9
20260502020104 48 357 0.0 0.0 0.00 0.00 0.00 29 1018.7
20260502015103 49 357 0.0 0.9 0.00 0.00 0.00 35 1018.6
20260502014604 50 357 0.0 0.9 0.00 0.00 0.00 32 1018.4
20260502014103 50 357 0.0 0.0 0.00 0.00 0.00 32 1018.5
20260502013603 50 357 0.0 0.9 0.00 0.00 0.00 32 1018.4
20260502013104 51 357 0.0 4.3 0.00 0.00 0.00 30 1018.3
20260502012603 51 328 0.9 2.6 0.00 0.00 0.00 31 1018.2
20260502012103 51 326 0.9 2.6 0.00 0.00 0.00 31 1018.3
20260502011604 51 333 0.9 2.6 0.00 0.00 0.00 30 1018.3
20260502010603 51 323 0.9 4.3 0.00 0.00 0.00 30 1018.3
20260502010104 52 335 0.0 5.2 0.00 0.00 0.00 29 1018.2
20260502005604 52 329 1.7 5.2 0.00 0.00 0.00 30 1018.2
20260502005104 52 320 2.6 5.2 0.00 0.00 0.00 28 1018.0
20260502004604 53 353 0.9 4.3 0.00 0.00 0.00 27 1017.9
20260502004105 53 341 0.9 4.3 0.00 0.00 0.00 28 1018.1
20260502003104 53 345 2.6 7.8 0.00 0.00 0.00 28 1018.1
20260502002604 52 336 1.7 6.1 0.00 0.00 0.00 28 1018.0
20260502002104 52 344 3.5 6.1 0.00 0.00 0.00 28 1018.0
20260502001603 53 337 2.6 6.1 0.00 0.00 0.00 28 1018.0
20260502001104 53 355 3.5 7.8 0.00 0.00 0.00 27 1018.1
20260502000104 53 349 1.7 4.3 0.00 0.00 0.00 27 1018.2
20260501235603 52 357 1.7 10.4 0.00 0.00 0.00 28 1018.2
20260501235103 52 281 5.2 10.4 0.00 0.00 0.00 29 1018.0
20260501234603 53 359 4.3 6.1 0.00 0.00 0.00 28 1018.1
20260501234104 53 8 1.7 5.2 0.00 0.00 0.00 28 1018.0